createdAt,value
2017-06-17T00:00:21.415Z,929.07
2017-06-17T00:00:49.547Z,929.1
2017-06-17T00:01:17.765Z,929.1
2017-06-17T00:01:45.991Z,929.12
2017-06-17T00:02:14.140Z,929.11
2017-06-17T00:02:42.357Z,929.11
2017-06-17T00:03:10.414Z,929.12
2017-06-17T00:03:38.648Z,929.09
2017-06-17T00:04:06.785Z,929.09
2017-06-17T00:05:17.950Z,929.07
2017-06-17T00:05:46.078Z,929.13
2017-06-17T00:06:14.328Z,929.06
2017-06-17T00:06:42.551Z,929.07
2017-06-17T00:07:10.770Z,929.05
2017-06-17T00:07:38.995Z,929.06
2017-06-17T00:08:07.147Z,929.06
2017-06-17T00:08:35.282Z,929.07
2017-06-17T00:09:03.526Z,929.06
2017-06-17T00:09:31.755Z,929.04
2017-06-17T00:09:59.985Z,929.05
2017-06-17T00:11:11.152Z,929.03
2017-06-17T00:11:39.275Z,929.04
2017-06-17T00:12:07.433Z,929.08
2017-06-17T00:12:35.556Z,929.08
2017-06-17T00:13:03.777Z,929.1
2017-06-17T00:13:31.997Z,929.08
2017-06-17T00:14:00.149Z,929.09
2017-06-17T00:14:28.364Z,929.14
2017-06-17T00:14:56.608Z,929.14
2017-06-17T00:15:24.740Z,929.15
2017-06-17T00:15:52.876Z,929.15
2017-06-17T00:17:03.956Z,929.15
2017-06-17T00:17:32.089Z,929.14
2017-06-17T00:18:00.337Z,929.09
2017-06-17T00:18:28.468Z,929.14
2017-06-17T00:18:56.598Z,929.15
2017-06-17T00:19:24.827Z,929.16
2017-06-17T00:19:53.073Z,929.16
2017-06-17T00:20:21.199Z,929.13
2017-06-17T00:20:49.447Z,929.14
2017-06-17T00:21:17.681Z,929.15
2017-06-17T00:21:45.909Z,929.1
2017-06-17T00:22:57.175Z,929.14
2017-06-17T00:23:25.305Z,929.12
2017-06-17T00:23:53.575Z,929.12
2017-06-17T00:24:21.609Z,929.15
2017-06-17T00:24:49.824Z,929.11
2017-06-17T00:25:18.054Z,929.12
2017-06-17T00:25:46.302Z,929.13
2017-06-17T00:26:14.520Z,929.1
2017-06-17T00:26:42.584Z,929.12
2017-06-17T00:27:10.813Z,929.12
2017-06-17T00:27:38.948Z,929.09
2017-06-17T00:28:50.207Z,929.09
2017-06-17T00:29:18.430Z,929.06
2017-06-17T00:29:46.683Z,929.04
2017-06-17T00:30:14.909Z,929.06
2017-06-17T00:30:43.133Z,929.07
2017-06-17T00:31:11.355Z,929.02
2017-06-17T00:31:39.414Z,929
2017-06-17T00:32:07.627Z,928.97
2017-06-17T00:32:35.684Z,929
2017-06-17T00:33:03.917Z,928.96
2017-06-17T00:33:32.052Z,928.97
2017-06-17T00:34:43.309Z,928.95
2017-06-17T00:35:11.436Z,928.96
2017-06-17T00:35:39.689Z,928.95
2017-06-17T00:36:07.916Z,928.97
2017-06-17T00:36:36.133Z,928.96
2017-06-17T00:37:04.170Z,928.97
2017-06-17T00:37:32.223Z,928.99
2017-06-17T00:38:00.441Z,929
2017-06-17T00:38:28.689Z,928.99
2017-06-17T00:38:56.919Z,929.01
2017-06-17T00:39:25.152Z,928.99
2017-06-17T00:40:36.419Z,929.02
2017-06-17T00:41:04.643Z,928.98
2017-06-17T00:41:32.899Z,929.04
2017-06-17T00:42:01.113Z,929
2017-06-17T00:42:29.336Z,929.03
2017-06-17T00:42:57.563Z,929
2017-06-17T00:43:25.719Z,929.02
2017-06-17T00:43:53.942Z,929.03
2017-06-17T00:44:22.098Z,929.04
2017-06-17T00:44:50.227Z,929.02
2017-06-17T00:45:18.457Z,928.99
2017-06-17T00:46:29.717Z,929.03
2017-06-17T00:46:57.847Z,929.01
2017-06-17T00:47:26.097Z,929.05
2017-06-17T00:47:54.225Z,929
2017-06-17T00:48:22.354Z,929.02
2017-06-17T00:48:50.584Z,929.02
2017-06-17T00:49:18.644Z,929
2017-06-17T00:49:46.866Z,929.02
2017-06-17T00:50:15.552Z,929.01
2017-06-17T00:50:43.690Z,929.02
2017-06-17T00:51:11.924Z,929.01
2017-06-17T00:52:23.182Z,928.98
2017-06-17T00:52:51.403Z,929.01
2017-06-17T00:53:19.659Z,929.01
2017-06-17T00:53:47.883Z,928.96
2017-06-17T00:54:16.013Z,928.98
2017-06-17T00:54:44.147Z,929.01
2017-06-17T00:55:12.295Z,929.03
2017-06-17T00:55:40.510Z,929.01
2017-06-17T00:56:08.579Z,929
2017-06-17T00:56:36.800Z,929.01
2017-06-17T00:57:05.031Z,929.02
2017-06-17T00:58:16.105Z,929
2017-06-17T00:58:44.235Z,929.01
2017-06-17T00:59:12.388Z,929.02
2017-06-17T00:59:40.510Z,929.02
2017-06-17T01:00:08.725Z,929.02
2017-06-17T01:00:36.856Z,929.03
2017-06-17T01:01:05.003Z,929.04
2017-06-17T01:01:33.219Z,929.01
2017-06-17T01:02:01.371Z,929.01
2017-06-17T01:02:29.597Z,928.99
2017-06-17T01:02:57.732Z,928.99
2017-06-17T01:04:08.997Z,929
2017-06-17T01:04:37.217Z,928.97
2017-06-17T01:05:05.472Z,928.96
2017-06-17T01:05:33.599Z,928.99
2017-06-17T01:06:01.813Z,928.99
2017-06-17T01:06:30.039Z,928.97
2017-06-17T01:06:58.195Z,929.01
2017-06-17T01:07:26.318Z,928.94
2017-06-17T01:07:54.560Z,928.96
2017-06-17T01:08:22.797Z,928.93
2017-06-17T01:08:51.026Z,928.97
2017-06-17T01:10:02.285Z,928.98
2017-06-17T01:10:30.410Z,928.97
2017-06-17T01:10:58.656Z,928.96
2017-06-17T01:11:26.777Z,928.97
2017-06-17T01:11:54.993Z,928.94
2017-06-17T01:12:23.221Z,928.93
2017-06-17T01:12:51.466Z,928.91
2017-06-17T01:13:19.689Z,928.92
2017-06-17T01:13:47.846Z,928.93
2017-06-17T01:14:16.075Z,928.93
2017-06-17T01:14:44.305Z,928.92
2017-06-17T01:15:55.573Z,928.92
2017-06-17T01:16:23.696Z,928.9
2017-06-17T01:16:51.854Z,928.94
2017-06-17T01:17:20.068Z,928.94
2017-06-17T01:17:48.294Z,928.92
2017-06-17T01:18:16.522Z,928.93
2017-06-17T01:18:44.674Z,928.92
2017-06-17T01:19:12.893Z,928.94
2017-06-17T01:19:40.862Z,928.92
2017-06-17T01:20:08.899Z,928.97
2017-06-17T01:20:37.034Z,928.93
2017-06-17T01:21:48.290Z,928.95
2017-06-17T01:22:16.513Z,928.91
2017-06-17T01:22:44.768Z,928.94
2017-06-17T01:23:12.898Z,928.92
2017-06-17T01:23:41.020Z,928.9
2017-06-17T01:24:09.148Z,928.95
2017-06-17T01:24:37.391Z,928.94
2017-06-17T01:25:05.615Z,928.94
2017-06-17T01:25:33.764Z,928.91
2017-06-17T01:26:01.896Z,928.91
2017-06-17T01:26:30.025Z,928.93
2017-06-17T01:27:41.282Z,928.87
2017-06-17T01:28:09.410Z,928.9
2017-06-17T01:28:37.656Z,928.9
2017-06-17T01:29:05.872Z,928.91
2017-06-17T01:29:33.904Z,928.91
2017-06-17T01:30:02.133Z,928.9
2017-06-17T01:30:30.385Z,928.9
2017-06-17T01:30:58.609Z,928.92
2017-06-17T01:31:26.852Z,928.92
2017-06-17T01:31:55.087Z,928.9
2017-06-17T01:32:23.313Z,928.9
2017-06-17T01:33:34.575Z,928.88
2017-06-17T01:34:02.710Z,928.92
2017-06-17T01:34:30.961Z,928.92
2017-06-17T01:34:59.209Z,928.96
2017-06-17T01:35:33.629Z,928.93
2017-06-17T01:36:01.858Z,928.98
2017-06-17T01:36:29.839Z,928.93
2017-06-17T01:36:58.044Z,928.97
2017-06-17T01:37:26.251Z,928.95
2017-06-17T01:37:54.528Z,928.94
2017-06-17T01:38:22.682Z,928.96
2017-06-17T01:39:33.898Z,928.96
2017-06-17T01:40:02.033Z,928.98
2017-06-17T01:40:30.270Z,928.98
2017-06-17T01:40:58.406Z,929
2017-06-17T01:41:26.636Z,928.99
2017-06-17T01:41:54.883Z,929.01
2017-06-17T01:42:23.084Z,929.01
2017-06-17T01:42:51.345Z,929.04
2017-06-17T01:43:19.629Z,929.03
2017-06-17T01:43:47.901Z,929.03
2017-06-17T01:44:16.076Z,929.06
2017-06-17T01:45:27.289Z,929.07
2017-06-17T01:45:55.371Z,929.06
2017-06-17T01:46:23.570Z,929.09
2017-06-17T01:46:51.830Z,929.06
2017-06-17T01:47:19.997Z,929.08
2017-06-17T01:47:48.168Z,929.06
2017-06-17T01:48:16.263Z,929.06
2017-06-17T01:48:44.530Z,929.09
2017-06-17T01:49:12.631Z,929.06
2017-06-17T01:49:40.900Z,929.08
2017-06-17T01:50:09.078Z,929.04
2017-06-17T01:51:20.291Z,929.05
2017-06-17T01:51:48.556Z,929.06
2017-06-17T01:52:16.853Z,929.08
2017-06-17T01:52:44.922Z,929.08
2017-06-17T01:53:13.183Z,929.07
2017-06-17T01:53:41.454Z,929.12
2017-06-17T01:54:09.548Z,929.05
2017-06-17T01:54:37.814Z,929.06
2017-06-17T01:55:06.004Z,929.06
2017-06-17T01:55:34.083Z,929.11
2017-06-17T01:56:02.260Z,929.08
2017-06-17T01:57:13.375Z,929.08
2017-06-17T01:57:41.545Z,929.15
2017-06-17T01:58:09.740Z,929.13
2017-06-17T01:58:37.814Z,929.13
2017-06-17T01:59:05.976Z,929.12
2017-06-17T01:59:33.962Z,929.1
2017-06-17T02:00:02.253Z,929.11
2017-06-17T02:00:30.420Z,929.13
2017-06-17T02:00:58.616Z,929.13
2017-06-17T02:01:26.793Z,929.12
2017-06-17T02:01:54.964Z,929.12
2017-06-17T02:03:06.177Z,929.07
2017-06-17T02:03:34.255Z,929.13
2017-06-17T02:04:02.353Z,929.12
2017-06-17T02:04:30.429Z,929.12
2017-06-17T02:04:58.506Z,929.14
2017-06-17T02:05:26.680Z,929.11
2017-06-17T02:05:54.877Z,929.17
2017-06-17T02:06:23.048Z,929.14
2017-06-17T02:06:51.336Z,929.13
2017-06-17T02:07:19.507Z,929.17
2017-06-17T02:07:47.683Z,929.17
2017-06-17T02:08:58.887Z,929.17
2017-06-17T02:09:27.153Z,929.18
2017-06-17T02:09:55.443Z,929.2
2017-06-17T02:10:23.707Z,929.16
2017-06-17T02:10:51.967Z,929.14
2017-06-17T02:11:20.049Z,929.16
2017-06-17T02:11:48.335Z,929.15
2017-06-17T02:12:16.502Z,929.15
2017-06-17T02:12:44.693Z,929.11
2017-06-17T02:13:12.676Z,929.14
2017-06-17T02:13:40.854Z,929.11
2017-06-17T02:14:52.156Z,929.14
2017-06-17T02:15:20.236Z,929.11
2017-06-17T02:15:48.432Z,929.11
2017-06-17T02:16:16.697Z,929.07
2017-06-17T02:16:44.953Z,929.1
2017-06-17T02:17:13.036Z,929.05
2017-06-17T02:17:41.223Z,929.02
2017-06-17T02:18:09.390Z,929.04
2017-06-17T02:18:37.391Z,929.08
2017-06-17T02:19:05.660Z,929.02
2017-06-17T02:19:33.744Z,929.04
2017-06-17T02:20:44.961Z,929.05
2017-06-17T02:21:13.043Z,929.05
2017-06-17T02:21:41.335Z,929.03
2017-06-17T02:22:09.598Z,929.03
2017-06-17T02:22:37.762Z,929.04
2017-06-17T02:23:05.747Z,929.01
2017-06-17T02:23:33.937Z,929.05
2017-06-17T02:24:02.104Z,929.01
2017-06-17T02:24:30.123Z,929.03
2017-06-17T02:24:58.289Z,929.06
2017-06-17T02:25:26.376Z,929.04
2017-06-17T02:26:37.592Z,929.03
2017-06-17T02:27:05.764Z,929.08
2017-06-17T02:27:33.961Z,929.04
2017-06-17T02:28:02.231Z,929.06
2017-06-17T02:28:30.402Z,929.07
2017-06-17T02:28:58.484Z,929.07
2017-06-17T02:29:26.777Z,929.06
2017-06-17T02:29:54.943Z,929.07
2017-06-17T02:30:23.236Z,929.09
2017-06-17T02:30:51.506Z,929.07
2017-06-17T02:31:19.594Z,929.1
2017-06-17T02:32:30.897Z,929.06
2017-06-17T02:32:58.887Z,929.1
2017-06-17T02:33:27.178Z,929.08
2017-06-17T02:33:55.442Z,929.07
2017-06-17T02:34:23.608Z,929.07
2017-06-17T02:34:51.682Z,929.11
2017-06-17T02:35:19.877Z,929.11
2017-06-17T02:35:48.043Z,929.06
2017-06-17T02:36:16.243Z,929.11
2017-06-17T02:36:44.513Z,929.1
2017-06-17T02:37:12.691Z,929.14
2017-06-17T02:38:23.996Z,929.12
2017-06-17T02:38:52.170Z,929.1
2017-06-17T02:39:20.371Z,929.09
2017-06-17T02:39:48.640Z,929.1
2017-06-17T02:40:16.899Z,929.1
2017-06-17T02:40:45.163Z,929.08
2017-06-17T02:41:13.357Z,929.09
2017-06-17T02:41:41.335Z,929.06
2017-06-17T02:42:09.627Z,929.08
2017-06-17T02:42:37.808Z,929.06
2017-06-17T02:43:05.983Z,929.09
2017-06-17T02:44:17.283Z,929.07
2017-06-17T02:44:45.456Z,929.09
2017-06-17T02:45:13.747Z,929.03
2017-06-17T02:45:41.918Z,929.08
2017-06-17T02:46:10.084Z,929.08
2017-06-17T02:46:38.354Z,929.07
2017-06-17T02:47:06.548Z,929.07
2017-06-17T02:47:34.718Z,929.04
2017-06-17T02:48:02.819Z,929.07
2017-06-17T02:48:31.093Z,929.04
2017-06-17T02:48:59.173Z,929.05
2017-06-17T02:50:10.378Z,929.04
2017-06-17T02:50:38.551Z,929.02
2017-06-17T02:51:06.846Z,929.04
2017-06-17T02:51:35.110Z,929.01
2017-06-17T02:52:03.178Z,929
2017-06-17T02:52:31.447Z,928.99
2017-06-17T02:52:59.542Z,929
2017-06-17T02:53:27.801Z,929.02
2017-06-17T02:53:55.995Z,928.99
2017-06-17T02:54:24.264Z,929.02
2017-06-17T02:54:52.539Z,929.03
2017-06-17T02:56:03.843Z,929.04
2017-06-17T02:56:31.916Z,929.04
2017-06-17T02:56:59.828Z,929.05
2017-06-17T02:57:27.996Z,929.04
2017-06-17T02:57:56.163Z,929.06
2017-06-17T02:58:24.429Z,929.02
2017-06-17T02:58:52.616Z,929.04
2017-06-17T02:59:20.874Z,929.03
2017-06-17T02:59:49.158Z,929.02
2017-06-17T03:00:17.240Z,928.98
2017-06-17T03:00:45.416Z,929.02
2017-06-17T03:01:56.626Z,929.02
2017-06-17T03:02:24.702Z,929
2017-06-17T03:02:52.899Z,928.97
2017-06-17T03:03:21.067Z,928.96
2017-06-17T03:03:49.329Z,928.93
2017-06-17T03:04:17.498Z,928.95
2017-06-17T03:04:45.688Z,928.97
2017-06-17T03:05:13.853Z,928.97
2017-06-17T03:05:41.857Z,928.97
2017-06-17T03:06:10.031Z,928.95
2017-06-17T03:06:38.297Z,928.94
2017-06-17T03:07:49.409Z,928.95
2017-06-17T03:08:17.579Z,928.97
2017-06-17T03:08:45.779Z,928.98
2017-06-17T03:09:13.952Z,928.97
2017-06-17T03:09:42.213Z,928.96
2017-06-17T03:10:10.477Z,928.96
2017-06-17T03:10:38.760Z,928.96
2017-06-17T03:11:07.024Z,928.99
2017-06-17T03:11:35.313Z,928.96
2017-06-17T03:12:03.487Z,928.98
2017-06-17T03:12:31.574Z,928.99
2017-06-17T03:13:42.595Z,928.96
2017-06-17T03:14:10.765Z,928.96
2017-06-17T03:14:39.059Z,928.97
2017-06-17T03:15:07.134Z,928.95
2017-06-17T03:15:35.109Z,928.97
2017-06-17T03:16:03.376Z,928.95
2017-06-17T03:16:31.660Z,928.99
2017-06-17T03:16:59.916Z,928.97
2017-06-17T03:17:28.203Z,928.98
2017-06-17T03:17:56.288Z,928.97
2017-06-17T03:18:24.465Z,928.99
2017-06-17T03:19:35.580Z,929.01
2017-06-17T03:20:03.752Z,929.01
2017-06-17T03:20:31.945Z,928.96
2017-06-17T03:21:00.020Z,928.96
2017-06-17T03:21:28.098Z,928.92
2017-06-17T03:21:56.273Z,928.95
2017-06-17T03:22:24.465Z,928.97
2017-06-17T03:22:52.543Z,928.98
2017-06-17T03:23:20.643Z,928.95
2017-06-17T03:23:48.820Z,928.95
2017-06-17T03:24:17.094Z,928.94
2017-06-17T03:25:28.399Z,928.92
2017-06-17T03:25:56.665Z,928.89
2017-06-17T03:26:24.961Z,928.9
2017-06-17T03:26:53.224Z,928.88
2017-06-17T03:27:21.393Z,928.89
2017-06-17T03:27:49.655Z,928.85
2017-06-17T03:28:17.941Z,928.83
2017-06-17T03:28:46.106Z,928.84
2017-06-17T03:29:14.296Z,928.85
2017-06-17T03:29:42.569Z,928.83
2017-06-17T03:30:10.841Z,928.8
2017-06-17T03:31:22.146Z,928.77
2017-06-17T03:31:50.408Z,928.83
2017-06-17T03:32:18.702Z,928.84
2017-06-17T03:32:46.587Z,928.82
2017-06-17T03:33:14.658Z,928.82
2017-06-17T03:33:42.930Z,928.8
2017-06-17T03:34:11.123Z,928.84
2017-06-17T03:34:39.193Z,928.8
2017-06-17T03:35:07.477Z,928.78
2017-06-17T03:35:35.652Z,928.81
2017-06-17T03:36:03.827Z,928.81
2017-06-17T03:37:15.036Z,928.8
2017-06-17T03:37:43.302Z,928.81
2017-06-17T03:38:11.594Z,928.8
2017-06-17T03:38:39.672Z,928.8
2017-06-17T03:39:07.659Z,928.81
2017-06-17T03:39:35.828Z,928.78
2017-06-17T03:40:04.111Z,928.8
2017-06-17T03:40:32.279Z,928.79
2017-06-17T03:41:00.475Z,928.78
2017-06-17T03:41:28.652Z,928.78
2017-06-17T03:41:56.827Z,928.8
2017-06-17T03:43:07.946Z,928.77
2017-06-17T03:43:36.022Z,928.8
2017-06-17T03:44:04.225Z,928.81
2017-06-17T03:44:32.307Z,928.77
2017-06-17T03:45:00.476Z,928.77
2017-06-17T03:45:28.741Z,928.8
2017-06-17T03:45:56.935Z,928.79
2017-06-17T03:46:25.011Z,928.78
2017-06-17T03:46:53.116Z,928.8
2017-06-17T03:47:21.385Z,928.8
2017-06-17T03:47:49.656Z,928.78
2017-06-17T03:49:00.962Z,928.77
2017-06-17T03:49:29.154Z,928.75
2017-06-17T03:49:57.433Z,928.76
2017-06-17T03:50:25.508Z,928.76
2017-06-17T03:50:53.488Z,928.74
2017-06-17T03:51:21.756Z,928.74
2017-06-17T03:51:49.951Z,928.74
2017-06-17T03:52:18.024Z,928.72
2017-06-17T03:52:46.217Z,928.73
2017-06-17T03:53:14.491Z,928.74
2017-06-17T03:53:42.671Z,928.68
2017-06-17T03:54:53.974Z,928.67
2017-06-17T03:55:22.149Z,928.64
2017-06-17T03:55:50.353Z,928.66
2017-06-17T03:56:18.616Z,928.64
2017-06-17T03:56:46.687Z,928.7
2017-06-17T03:57:14.862Z,928.71
2017-06-17T03:57:43.052Z,928.69
2017-06-17T03:58:11.221Z,928.65
2017-06-17T03:58:39.322Z,928.72
2017-06-17T03:59:07.595Z,928.72
2017-06-17T03:59:35.771Z,928.71
2017-06-17T04:00:47.075Z,928.73
2017-06-17T04:01:15.342Z,928.72
2017-06-17T04:01:43.539Z,928.72
2017-06-17T04:02:11.621Z,928.74
2017-06-17T04:02:39.788Z,928.76
2017-06-17T04:03:07.962Z,928.76
2017-06-17T04:03:36.156Z,928.74
2017-06-17T04:04:04.420Z,928.76
2017-06-17T04:04:32.613Z,928.78
2017-06-17T04:05:00.784Z,928.79
2017-06-17T04:05:29.073Z,928.76
2017-06-17T04:06:40.360Z,928.76
2017-06-17T04:07:08.623Z,928.75
2017-06-17T04:07:36.820Z,928.77
2017-06-17T04:08:04.994Z,928.76
2017-06-17T04:08:33.071Z,928.76
2017-06-17T04:09:01.247Z,928.79
2017-06-17T04:09:29.529Z,928.76
2017-06-17T04:09:57.789Z,928.77
2017-06-17T04:10:25.800Z,928.8
2017-06-17T04:10:54.070Z,928.79
2017-06-17T04:11:22.153Z,928.8
2017-06-17T04:12:33.461Z,928.82
2017-06-17T04:13:01.544Z,928.83
2017-06-17T04:13:29.830Z,928.81
2017-06-17T04:13:57.812Z,928.8
2017-06-17T04:14:25.975Z,928.83
2017-06-17T04:14:54.245Z,928.84
2017-06-17T04:15:22.434Z,928.83
2017-06-17T04:15:50.600Z,928.81
2017-06-17T04:16:18.792Z,928.8
2017-06-17T04:16:47.060Z,928.79
2017-06-17T04:17:15.235Z,928.76
2017-06-17T04:18:26.347Z,928.76
2017-06-17T04:18:54.526Z,928.71
2017-06-17T04:19:22.724Z,928.7
2017-06-17T04:19:50.798Z,928.66
2017-06-17T04:20:18.969Z,928.69
2017-06-17T04:20:47.142Z,928.69
2017-06-17T04:21:15.338Z,928.7
2017-06-17T04:21:43.506Z,928.68
2017-06-17T04:22:11.795Z,928.69
2017-06-17T04:22:40.065Z,928.68
2017-06-17T04:23:08.334Z,928.67
2017-06-17T04:24:19.544Z,928.66
2017-06-17T04:24:47.619Z,928.71
2017-06-17T04:25:15.906Z,928.66
2017-06-17T04:25:44.167Z,928.63
2017-06-17T04:26:12.237Z,928.67
2017-06-17T04:26:40.225Z,928.66
2017-06-17T04:27:08.413Z,928.62
2017-06-17T04:27:36.483Z,928.61
2017-06-17T04:28:04.773Z,928.63
2017-06-17T04:28:33.046Z,928.66
2017-06-17T04:29:01.319Z,928.61
2017-06-17T04:30:12.527Z,928.63
2017-06-17T04:30:40.511Z,928.64
2017-06-17T04:31:08.614Z,928.65
2017-06-17T04:31:36.878Z,928.65
2017-06-17T04:32:05.042Z,928.64
2017-06-17T04:32:33.216Z,928.66
2017-06-17T04:33:01.501Z,928.65
2017-06-17T04:33:29.756Z,928.64
2017-06-17T04:33:58.041Z,928.64
2017-06-17T04:34:26.316Z,928.65
2017-06-17T04:34:54.587Z,928.65
2017-06-17T04:36:05.794Z,928.63
2017-06-17T04:36:34.059Z,928.61
2017-06-17T04:37:02.165Z,928.6
2017-06-17T04:37:30.333Z,928.59
2017-06-17T04:37:58.591Z,928.57
2017-06-17T04:38:26.857Z,928.61
2017-06-17T04:38:55.144Z,928.58
2017-06-17T04:39:23.403Z,928.57
2017-06-17T04:39:51.409Z,928.59
2017-06-17T04:40:19.681Z,928.57
2017-06-17T04:40:47.857Z,928.57
2017-06-17T04:41:58.972Z,928.57
2017-06-17T04:42:27.044Z,928.57
2017-06-17T04:42:55.050Z,928.59
2017-06-17T04:43:23.216Z,928.57
2017-06-17T04:43:51.473Z,928.59
2017-06-17T04:44:19.645Z,928.58
2017-06-17T04:44:47.841Z,928.53
2017-06-17T04:45:16.102Z,928.56
2017-06-17T04:45:44.388Z,928.53
2017-06-17T04:46:12.562Z,928.52
2017-06-17T04:46:40.831Z,928.55
2017-06-17T04:47:52.038Z,928.57
2017-06-17T04:48:20.217Z,928.57
2017-06-17T04:48:48.512Z,928.57
2017-06-17T04:49:16.771Z,928.55
2017-06-17T04:49:44.753Z,928.53
2017-06-17T04:50:12.927Z,928.52
2017-06-17T04:50:41.209Z,928.51
2017-06-17T04:51:09.375Z,928.51
2017-06-17T04:51:37.665Z,928.53
2017-06-17T04:52:05.934Z,928.5
2017-06-17T04:52:34.015Z,928.52
2017-06-17T04:53:45.225Z,928.52
2017-06-17T04:54:13.401Z,928.49
2017-06-17T04:54:41.693Z,928.46
2017-06-17T04:55:09.858Z,928.48
2017-06-17T04:55:38.026Z,928.49
2017-06-17T04:56:06.297Z,928.44
2017-06-17T04:56:34.585Z,928.45
2017-06-17T04:57:02.748Z,928.41
2017-06-17T04:57:30.942Z,928.47
2017-06-17T04:57:59.208Z,928.47
2017-06-17T04:58:27.477Z,928.43
2017-06-17T04:59:38.682Z,928.46
2017-06-17T05:00:06.853Z,928.43
2017-06-17T05:00:35.053Z,928.42
2017-06-17T05:01:03.031Z,928.42
2017-06-17T05:01:31.107Z,928.41
2017-06-17T05:01:59.374Z,928.39
2017-06-17T05:02:27.469Z,928.39
2017-06-17T05:02:55.731Z,928.42
2017-06-17T05:03:23.739Z,928.41
2017-06-17T05:03:52.013Z,928.4
2017-06-17T05:04:20.283Z,928.37
2017-06-17T05:05:31.585Z,928.36
2017-06-17T05:05:59.851Z,928.36
2017-06-17T05:06:28.050Z,928.37
2017-06-17T05:06:56.026Z,928.33
2017-06-17T05:07:24.001Z,928.34
2017-06-17T05:07:52.273Z,928.35
2017-06-17T05:08:20.375Z,928.34
2017-06-17T05:08:48.543Z,928.31
2017-06-17T05:09:16.739Z,928.33
2017-06-17T05:09:45.009Z,928.34
2017-06-17T05:10:13.281Z,928.34
2017-06-17T05:11:24.581Z,928.32
2017-06-17T05:11:52.656Z,928.31
2017-06-17T05:12:20.852Z,928.32
2017-06-17T05:12:49.020Z,928.32
2017-06-17T05:13:17.283Z,928.3
2017-06-17T05:13:45.548Z,928.29
2017-06-17T05:14:13.644Z,928.29
2017-06-17T05:14:41.909Z,928.29
2017-06-17T05:15:10.201Z,928.29
2017-06-17T05:15:38.378Z,928.26
2017-06-17T05:16:06.647Z,928.3
2017-06-17T05:17:17.763Z,928.25
2017-06-17T05:17:45.936Z,928.28
2017-06-17T05:18:14.143Z,928.25
2017-06-17T05:18:42.317Z,928.27
2017-06-17T05:19:10.578Z,928.25
2017-06-17T05:19:38.841Z,928.28
2017-06-17T05:20:06.939Z,928.28
2017-06-17T05:20:35.013Z,928.28
2017-06-17T05:21:03.300Z,928.28
2017-06-17T05:21:31.475Z,928.3
2017-06-17T05:21:59.658Z,928.27
2017-06-17T05:23:10.865Z,928.25
2017-06-17T05:23:38.944Z,928.25
2017-06-17T05:24:07.236Z,928.26
2017-06-17T05:24:35.311Z,928.23
2017-06-17T05:25:03.386Z,928.21
2017-06-17T05:25:31.652Z,928.22
2017-06-17T05:25:59.845Z,928.22
2017-06-17T05:26:28.015Z,928.2
2017-06-17T05:26:56.115Z,928.2
2017-06-17T05:27:24.384Z,928.17
2017-06-17T05:27:52.470Z,928.2
2017-06-17T05:29:03.580Z,928.16
2017-06-17T05:29:31.848Z,928.19
2017-06-17T05:30:00.139Z,928.2
2017-06-17T05:30:28.215Z,928.19
2017-06-17T05:30:56.283Z,928.19
2017-06-17T05:31:24.459Z,928.18
2017-06-17T05:31:52.742Z,928.16
2017-06-17T05:32:20.996Z,928.17
2017-06-17T05:32:49.190Z,928.13
2017-06-17T05:33:17.460Z,928.18
2017-06-17T05:33:45.731Z,928.16
2017-06-17T05:34:56.938Z,928.13
2017-06-17T05:35:25.108Z,928.1
2017-06-17T05:35:53.209Z,928.14
2017-06-17T05:36:21.378Z,928.1
2017-06-17T05:36:49.460Z,928.13
2017-06-17T05:37:17.534Z,928.14
2017-06-17T05:37:45.820Z,928.12
2017-06-17T05:38:13.892Z,928.11
2017-06-17T05:38:42.082Z,928.13
2017-06-17T05:39:10.352Z,928.11
2017-06-17T05:39:38.531Z,928.13
2017-06-17T05:40:49.832Z,928.1
2017-06-17T05:41:17.911Z,928.11
2017-06-17T05:41:46.112Z,928.12
2017-06-17T05:42:14.185Z,928.11
2017-06-17T05:42:42.446Z,928.07
2017-06-17T05:43:10.616Z,928.08
2017-06-17T05:43:38.902Z,928.08
2017-06-17T05:44:07.068Z,928.11
2017-06-17T05:44:35.360Z,928.1
2017-06-17T05:45:03.629Z,928.06
2017-06-17T05:45:31.809Z,928.1
2017-06-17T05:46:43.110Z,928.08
2017-06-17T05:47:11.190Z,928.07
2017-06-17T05:47:39.480Z,928.06
2017-06-17T05:48:07.648Z,928.05
2017-06-17T05:48:35.530Z,928.06
2017-06-17T05:49:03.800Z,928.05
2017-06-17T05:49:31.895Z,928.08
2017-06-17T05:50:00.159Z,928.04
2017-06-17T05:50:28.447Z,928.05
2017-06-17T05:50:56.714Z,928.05
2017-06-17T05:51:24.893Z,928.06
2017-06-17T05:52:36.200Z,928.08
2017-06-17T05:53:04.277Z,928.07
2017-06-17T05:53:32.566Z,928.07
2017-06-17T05:54:00.838Z,928.09
2017-06-17T05:54:28.998Z,928.12
2017-06-17T05:54:57.075Z,928.11
2017-06-17T05:55:25.360Z,928.1
2017-06-17T05:55:53.531Z,928.15
2017-06-17T05:56:21.721Z,928.1
2017-06-17T05:56:49.995Z,928.12
2017-06-17T05:57:18.269Z,928.13
2017-06-17T05:58:29.382Z,928.09
2017-06-17T05:58:57.458Z,928.11
2017-06-17T05:59:25.750Z,928.09
2017-06-17T05:59:53.916Z,928.09
2017-06-17T06:00:22.181Z,928.12
2017-06-17T06:00:50.450Z,928.12
2017-06-17T06:01:18.550Z,928.14
2017-06-17T06:01:46.815Z,928.15
2017-06-17T06:02:14.917Z,928.12
2017-06-17T06:02:43.094Z,928.12
2017-06-17T06:03:11.367Z,928.11
2017-06-17T06:04:22.673Z,928.17
2017-06-17T06:04:50.750Z,928.13
2017-06-17T06:05:19.049Z,928.13
2017-06-17T06:05:47.311Z,928.13
2017-06-17T06:06:15.571Z,928.12
2017-06-17T06:06:43.841Z,928.14
2017-06-17T06:07:12.035Z,928.15
2017-06-17T06:07:40.298Z,928.15
2017-06-17T06:08:08.579Z,928.15
2017-06-17T06:08:36.759Z,928.13
2017-06-17T06:09:04.933Z,928.12
2017-06-17T06:10:16.134Z,928.1
2017-06-17T06:10:44.310Z,928.13
2017-06-17T06:11:12.416Z,928.12
2017-06-17T06:11:40.674Z,928.1
2017-06-17T06:12:08.839Z,928.12
2017-06-17T06:12:37.107Z,928.09
2017-06-17T06:13:05.298Z,928.12
2017-06-17T06:13:33.368Z,928.09
2017-06-17T06:14:01.569Z,928.08
2017-06-17T06:14:29.745Z,928.15
2017-06-17T06:14:57.917Z,928.11
2017-06-17T06:16:09.031Z,928.1
2017-06-17T06:16:37.199Z,928.11
2017-06-17T06:17:05.491Z,928.09
2017-06-17T06:17:33.758Z,928.11
2017-06-17T06:18:01.922Z,928.09
2017-06-17T06:18:30.193Z,928.11
2017-06-17T06:18:58.475Z,928.13
2017-06-17T06:19:26.556Z,928.1
2017-06-17T06:19:54.562Z,928.1
2017-06-17T06:20:22.832Z,928.1
2017-06-17T06:20:51.011Z,928.11
2017-06-17T06:22:02.220Z,928.1
2017-06-17T06:22:30.390Z,928.12
2017-06-17T06:22:58.683Z,928.12
2017-06-17T06:23:26.850Z,928.09
2017-06-17T06:23:55.110Z,928.12
2017-06-17T06:24:23.376Z,928.09
2017-06-17T06:24:51.473Z,928.09
2017-06-17T06:25:19.641Z,928.09
2017-06-17T06:25:47.933Z,928.09
2017-06-17T06:26:16.111Z,928.11
2017-06-17T06:26:44.384Z,928.12
2017-06-17T06:27:55.687Z,928.1
2017-06-17T06:28:23.760Z,928.08
2017-06-17T06:28:51.860Z,928.06
2017-06-17T06:29:20.029Z,928.1
2017-06-17T06:29:48.191Z,928.1
2017-06-17T06:30:16.459Z,928.11
2017-06-17T06:30:44.642Z,928.05
2017-06-17T06:31:12.810Z,928.07
2017-06-17T06:31:41.004Z,928.05
2017-06-17T06:32:09.276Z,928.07
2017-06-17T06:32:37.452Z,928.04
2017-06-17T06:33:48.662Z,928.07
2017-06-17T06:34:16.930Z,928.03
2017-06-17T06:34:45.136Z,928.06
2017-06-17T06:35:13.299Z,928.07
2017-06-17T06:35:41.368Z,928.01
2017-06-17T06:36:09.632Z,927.99
2017-06-17T06:36:37.821Z,927.99
2017-06-17T06:37:06.080Z,927.96
2017-06-17T06:37:34.272Z,927.94
2017-06-17T06:38:02.541Z,927.94
2017-06-17T06:38:30.811Z,927.95
2017-06-17T06:39:42.112Z,927.95
2017-06-17T06:40:10.191Z,927.97
2017-06-17T06:40:38.387Z,927.92
2017-06-17T06:41:06.465Z,927.96
2017-06-17T06:41:34.723Z,927.97
2017-06-17T06:42:02.991Z,927.96